Time;durP1;ratioP1;P1;durP2;ratioP2;P2;SDS_P1;SDS_P2;PMS_P1;PMS_P2;Temp;Humidity;BMP_temperature;BMP_pressure;BME280_temperature;BME280_humidity;BME280_pressure;Samples;Min_cycle;Max_cycle;Signal;HPM_P1;HPM_P2
2024/01/25 00:02:16;;;;;;;63.70;29.40;;;;;;;7.71;60.76;98995.71;107855;1256;69668;-65
2024/01/25 00:04:44;;;;;;;60.30;29.70;;;;;;;7.54;61.37;98997.88;108041;1254;71010;-67
2024/01/25 00:07:11;;;;;;;60.60;30.70;;;;;;;7.57;61.53;98995.50;107989;1256;60579;-66
2024/01/25 00:09:39;;;;;;;56.60;29.50;;;;;;;7.65;60.99;98987.62;107924;1254;59790;-65
2024/01/25 00:12:07;;;;;;;63.20;30.20;;;;;;;7.68;61.11;98995.36;107877;1258;73886;-68
2024/01/25 00:14:34;;;;;;;60.20;29.10;;;;;;;7.77;60.81;98994.80;107936;1256;70728;-67
2024/01/25 00:17:02;;;;;;;58.80;28.70;;;;;;;7.86;60.55;98987.92;107907;1256;72996;-67
2024/01/25 00:19:29;;;;;;;59.00;28.20;;;;;;;8.09;59.82;98990.59;107873;1255;60882;-67
2024/01/25 00:21:57;;;;;;;53.60;27.40;;;;;;;8.01;60.04;98982.70;107919;1255;60123;-67
2024/01/25 00:24:25;;;;;;;58.10;28.20;;;;;;;7.92;60.29;98980.53;107913;1254;73842;-67
2024/01/25 00:26:53;;;;;;;60.20;29.40;;;;;;;7.83;60.50;98979.00;107975;1256;70317;-67
2024/01/25 00:29:20;;;;;;;56.50;27.20;;;;;;;7.92;60.27;98976.15;107923;1255;71335;-67
2024/01/25 00:31:48;;;;;;;53.50;28.00;;;;;;;7.85;60.56;98973.63;107947;1256;60284;-66
2024/01/25 00:34:15;;;;;;;61.40;28.20;;;;;;;7.73;60.78;98971.02;107900;1258;60307;-65
2024/01/25 00:36:43;;;;;;;54.80;27.10;;;;;;;7.80;60.84;98970.39;107983;1257;72206;-67
2024/01/25 00:39:11;;;;;;;56.80;26.10;;;;;;;7.81;60.74;98971.02;107923;1255;70213;-66
2024/01/25 00:41:38;;;;;;;57.00;28.30;;;;;;;7.63;61.45;98970.23;107872;1256;71438;-67
2024/01/25 00:44:06;;;;;;;63.60;30.30;;;;;;;7.59;61.46;98965.16;107617;1254;60865;-67
2024/01/25 00:46:34;;;;;;;52.90;29.00;;;;;;;7.83;60.73;98964.45;107877;1254;60456;-67
2024/01/25 00:49:02;;;;;;;57.60;27.50;;;;;;;7.78;60.95;98961.55;107933;1256;73437;-67
2024/01/25 00:51:30;;;;;;;51.70;27.30;;;;;;;7.92;60.72;98955.00;107987;1254;69185;-67
2024/01/25 00:53:58;;;;;;;47.80;25.90;;;;;;;8.00;60.35;98947.46;107999;1256;71791;-66
2024/01/25 00:56:27;;;;;;;55.10;29.60;;;;;;;7.92;60.55;98939.98;107977;1256;60280;-67
2024/01/25 00:58:55;;;;;;;57.70;29.30;;;;;;;7.97;60.38;98938.70;107941;1254;61431;-67
2024/01/25 01:01:23;;;;;;;49.20;26.70;;;;;;;7.79;60.81;98935.63;107978;1254;73791;-66
2024/01/25 01:03:52;;;;;;;55.40;30.00;;;;;;;7.88;60.79;98935.42;107723;1256;68468;-67
2024/01/25 01:06:21;;;;;;;54.90;27.40;;;;;;;7.91;60.60;98932.67;107903;1256;73949;-66
2024/01/25 01:08:48;;;;;;;52.70;28.30;;;;;;;7.90;60.67;98931.65;107985;1254;60832;-66
2024/01/25 01:11:16;;;;;;;55.40;29.40;;;;;;;7.97;60.42;98928.54;107872;1254;60209;-65
2024/01/25 01:13:43;;;;;;;51.40;27.60;;;;;;;7.99;60.44;98926.36;107905;1256;73854;-66
2024/01/25 01:16:11;;;;;;;65.90;32.90;;;;;;;8.06;60.18;98923.59;107856;1256;70303;-66
2024/01/25 01:18:38;;;;;;;49.70;28.30;;;;;;;8.09;60.04;98921.02;107985;1257;71419;-67
2024/01/25 01:21:06;;;;;;;56.30;30.50;;;;;;;8.17;60.06;98919.09;107969;1256;60402;-66
2024/01/25 01:23:34;;;;;;;63.00;31.40;;;;;;;8.25;59.86;98912.02;107962;1258;60308;-65
2024/01/25 01:26:01;;;;;;;59.90;30.60;;;;;;;8.24;59.97;98904.59;107943;1254;73305;-66
2024/01/25 01:28:28;;;;;;;54.20;28.40;;;;;;;8.18;60.22;98906.41;108091;1255;70152;-66
2024/01/25 01:30:56;;;;;;;58.30;30.00;;;;;;;8.19;60.20;98907.40;107943;1255;71562;-66
2024/01/25 01:33:23;;;;;;;66.80;30.40;;;;;;;8.04;60.65;98899.90;108001;1254;60397;-66
2024/01/25 01:35:51;;;;;;;69.10;33.00;;;;;;;8.12;60.44;98900.41;107905;1254;61185;-66
2024/01/25 01:38:18;;;;;;;58.00;29.60;;;;;;;8.26;60.17;98890.16;107928;1254;73791;-67
2024/01/25 01:40:46;;;;;;;61.70;29.90;;;;;;;8.28;60.10;98887.60;107891;1256;70745;-66
2024/01/25 01:43:20;;;;;;;57.50;28.90;;;;;;;8.40;59.94;98889.84;107985;1256;70831;-67
2024/01/25 01:45:49;;;;;;;51.60;27.20;;;;;;;8.51;59.58;98884.94;107920;1254;60901;-66
2024/01/25 01:48:17;;;;;;;50.80;26.80;;;;;;;8.49;59.74;98883.66;108152;1254;60289;-67
2024/01/25 01:50:44;;;;;;;66.70;31.90;;;;;;;8.59;59.59;98882.80;108095;1258;74534;-67
2024/01/25 01:53:12;;;;;;;53.30;26.80;;;;;;;8.60;59.78;98879.95;107929;1253;70055;-65
2024/01/25 01:55:41;;;;;;;59.20;29.10;;;;;;;8.73;59.55;98881.98;108031;1253;72769;-66
2024/01/25 01:58:09;;;;;;;52.30;26.80;;;;;;;8.75;59.53;98877.30;107880;1261;59605;-67
2024/01/25 02:00:37;;;;;;;56.30;30.60;;;;;;;8.86;59.22;98872.25;107924;1253;60451;-66
2024/01/25 02:03:05;;;;;;;48.30;26.70;;;;;;;8.80;59.30;98871.83;107923;1255;73862;-66
2024/01/25 02:05:32;;;;;;;53.10;26.90;;;;;;;8.92;59.23;98870.55;107934;1253;69994;-64
2024/01/25 02:07:59;;;;;;;62.40;29.40;;;;;;;8.84;59.47;98865.98;107916;1253;72996;-63
2024/01/25 02:10:27;;;;;;;56.80;28.00;;;;;;;8.79;59.62;98864.16;108060;1253;60405;-64
2024/01/25 02:12:54;;;;;;;57.50;29.10;;;;;;;8.65;60.06;98866.44;108134;1254;60537;-64
2024/01/25 02:15:22;;;;;;;54.80;27.90;;;;;;;8.66;60.15;98862.52;108073;1253;73006;-66
2024/01/25 02:17:50;;;;;;;51.00;25.10;;;;;;;8.69;60.07;98857.51;107943;1253;69991;-65
2024/01/25 02:20:18;;;;;;;57.50;29.20;;;;;;;8.82;59.79;98854.71;107721;1253;72509;-66
2024/01/25 02:22:46;;;;;;;64.50;28.10;;;;;;;8.84;59.59;98845.73;107948;1253;60278;-67
2024/01/25 02:25:14;;;;;;;57.00;29.90;;;;;;;8.73;60.17;98848.55;108001;1253;60349;-66
2024/01/25 02:27:41;;;;;;;62.00;29.10;;;;;;;8.88;59.85;98849.56;107897;1253;73944;-66
2024/01/25 02:30:09;;;;;;;67.20;32.10;;;;;;;9.05;59.31;98843.45;107951;1253;69988;-66
2024/01/25 02:32:36;;;;;;;54.40;26.70;;;;;;;8.99;59.34;98840.23;107985;1256;71881;-67
2024/01/25 02:35:04;;;;;;;66.30;30.70;;;;;;;8.97;59.64;98840.85;107982;1255;60895;-66
2024/01/25 02:37:32;;;;;;;60.20;28.90;;;;;;;8.88;59.79;98838.67;108052;1253;60171;-66
2024/01/25 02:39:59;;;;;;;61.70;27.90;;;;;;;8.92;59.74;98833.77;107919;1253;72563;-67
2024/01/25 02:42:27;;;;;;;67.20;29.20;;;;;;;8.87;60.01;98829.81;107950;1253;71589;-66
2024/01/25 02:44:54;;;;;;;62.40;27.90;;;;;;;8.67;60.59;98830.98;107914;1255;72547;-66
2024/01/25 02:47:22;;;;;;;66.50;30.30;;;;;;;8.87;60.18;98826.81;107912;1256;60316;-66
2024/01/25 02:49:49;;;;;;;51.30;26.50;;;;;;;9.20;59.42;98823.05;107992;1253;60410;-66
2024/01/25 02:52:17;;;;;;;53.60;26.70;;;;;;;9.16;59.56;98825.38;108021;1253;73633;-66
2024/01/25 02:54:45;;;;;;;55.60;27.90;;;;;;;9.15;59.70;98824.02;107972;1252;69120;-67
2024/01/25 02:57:12;;;;;;;55.80;27.00;;;;;;;9.20;59.55;98823.24;107890;1258;72928;-67
2024/01/25 02:59:40;;;;;;;68.30;31.60;;;;;;;9.23;59.46;98819.54;107912;1256;60875;-66
2024/01/25 03:02:07;;;;;;;55.20;27.50;;;;;;;9.07;59.83;98817.59;108035;1257;61392;-66
2024/01/25 03:04:35;;;;;;;60.50;29.30;;;;;;;9.20;59.82;98817.98;108028;1253;72630;-66
2024/01/25 03:07:03;;;;;;;62.20;27.50;;;;;;;9.36;59.22;98812.92;108041;1253;69942;-68
2024/01/25 03:09:31;;;;;;;49.20;24.10;;;;;;;9.45;59.06;98811.71;107932;1253;72120;-66
2024/01/25 03:11:59;;;;;;;58.70;27.60;;;;;;;9.42;59.16;98808.37;108024;1258;60538;-67
2024/01/25 03:14:26;;;;;;;51.70;25.80;;;;;;;9.35;59.26;98805.80;107912;1253;60335;-66
2024/01/25 03:16:54;;;;;;;53.90;26.10;;;;;;;9.25;59.54;98811.77;107921;1253;73804;-66
2024/01/25 03:19:24;;;;;;;54.30;26.10;;;;;;;9.21;59.80;98803.55;107895;1253;70352;-66
2024/01/25 03:21:52;;;;;;;;;;;;;;;9.05;60.37;98801.59;107987;1254;72910;-67
2024/01/25 03:24:20;;;;;;;42.50;21.50;;;;;;;9.16;60.12;98803.96;108041;1258;60895;-67
2024/01/25 03:26:48;;;;;;;40.60;21.10;;;;;;;8.99;60.59;98801.49;107973;1253;60448;-66
2024/01/25 03:29:21;;;;;;;44.30;22.50;;;;;;;9.02;60.67;98800.14;107936;1253;72427;-64
2024/01/25 03:31:49;;;;;;;41.30;21.30;;;;;;;9.13;60.47;98798.55;108047;1256;69098;-66
2024/01/25 03:34:17;;;;;;;43.30;20.80;;;;;;;9.27;60.27;98795.73;107973;1256;72531;-67
2024/01/25 03:36:45;;;;;;;42.60;20.60;;;;;;;9.22;60.31;98790.89;107909;1254;60400;-66
2024/01/25 03:39:13;;;;;;;42.90;20.90;;;;;;;9.13;60.71;98791.52;107965;1254;60313;-67
2024/01/25 03:41:40;;;;;;;36.10;19.00;;;;;;;9.08;60.90;98787.42;107893;1254;72853;-67
2024/01/25 03:44:07;;;;;;;36.80;19.90;;;;;;;8.97;61.26;98792.20;107905;1258;70301;-66
2024/01/25 03:46:35;;;;;;;37.30;18.50;;;;;;;8.94;61.50;98791.45;107937;1254;72173;-64
2024/01/25 03:49:04;;;;;;;30.40;17.80;;;;;;;9.17;61.10;98790.79;107907;1257;60924;-66
2024/01/25 03:52:25;;;;;;;40.50;19.60;;;;;;;9.31;60.75;98786.38;107931;1256;60312;-66
2024/01/25 03:54:53;;;;;;;31.70;17.20;;;;;;;9.33;60.71;98792.77;107883;1260;73034;-66
2024/01/25 03:57:20;;;;;;;32.40;17.60;;;;;;;9.35;60.67;98787.40;107889;1259;70449;-65
2024/01/25 03:59:48;;;;;;;33.40;17.60;;;;;;;9.32;60.80;98787.20;107893;1254;72709;-65
2024/01/25 04:02:16;;;;;;;26.90;16.30;;;;;;;9.41;60.64;98783.77;107875;1256;60133;-67
2024/01/25 04:07:40;;;;;;;30.90;18.20;;;;;;;6.89;69.82;98786.35;105779;1283;600210;-66
2024/01/25 04:10:08;;;;;;;31.00;17.40;;;;;;;7.93;66.01;98782.30;107375;1264;59241;-67
2024/01/25 04:12:35;;;;;;;29.20;17.20;;;;;;;8.10;65.47;98786.16;107428;1263;59235;-67
2024/01/25 04:15:03;;;;;;;31.20;17.80;;;;;;;8.26;64.94;98784.55;107317;1264;70850;-67
2024/01/25 04:17:31;;;;;;;29.70;16.30;;;;;;;8.32;64.74;98783.02;107313;1267;70144;-67
2024/01/25 04:19:58;;;;;;;31.90;17.90;;;;;;;8.12;65.29;98786.24;107241;1267;72482;-67
2024/01/25 04:22:26;;;;;;;31.40;16.90;;;;;;;8.11;65.42;98785.75;107306;1264;80662;-67
2024/01/25 04:24:53;;;;;;;27.50;16.40;;;;;;;8.06;65.73;98785.33;107388;1262;60109;-67
2024/01/25 04:27:21;;;;;;;30.00;17.30;;;;;;;8.13;65.59;98785.31;107409;1264;70942;-65
2024/01/25 04:29:49;;;;;;;27.90;15.70;;;;;;;7.98;65.90;98783.25;107434;1264;68668;-66
2024/01/25 04:32:17;;;;;;;29.30;17.00;;;;;;;7.58;67.37;98777.44;107417;1264;71319;-67
2024/01/25 04:34:47;;;;;;;30.30;16.90;;;;;;;7.62;67.47;98778.86;107372;1267;59609;-67
2024/01/25 04:37:15;;;;;;;31.50;15.80;;;;;;;7.49;68.11;98777.87;107386;1265;60059;-66
2024/01/25 04:39:43;;;;;;;29.20;16.60;;;;;;;7.71;67.40;98774.58;107359;1264;73072;-67
2024/01/25 04:42:10;;;;;;;25.00;15.40;;;;;;;7.70;67.45;98773.91;107336;1263;69524;-67
2024/01/25 04:44:38;;;;;;;32.40;17.40;;;;;;;7.75;67.33;98772.79;107379;1267;72644;-66
2024/01/25 04:47:05;;;;;;;31.70;18.60;;;;;;;8.01;66.56;98774.70;107336;1267;60809;-66
2024/01/25 04:49:33;;;;;;;32.20;16.80;;;;;;;8.00;66.46;98777.73;107366;1264;60020;-70
2024/01/25 04:52:00;;;;;;;28.70;16.40;;;;;;;8.15;66.06;98777.16;107519;1260;73195;-66
2024/01/25 04:54:28;;;;;;;34.20;17.30;;;;;;;8.17;65.93;98775.49;107516;1266;70405;-66
2024/01/25 04:56:55;;;;;;;30.50;16.90;;;;;;;8.15;66.09;98773.86;107483;1264;71410;-68
2024/01/25 04:59:23;;;;;;;29.10;16.20;;;;;;;8.08;66.30;98772.45;107501;1260;60854;-67
2024/01/25 05:01:51;;;;;;;33.60;17.20;;;;;;;8.08;66.34;98771.92;107561;1261;59829;-67
2024/01/25 05:04:19;;;;;;;30.50;17.50;;;;;;;8.20;66.01;98770.32;107512;1266;73045;-66
2024/01/25 05:06:46;;;;;;;32.80;16.70;;;;;;;8.27;65.79;98765.80;107451;1261;68719;-66
2024/01/25 05:09:14;;;;;;;30.30;15.40;;;;;;;8.15;66.04;98762.12;107545;1263;72648;-67
2024/01/25 05:11:43;;;;;;;26.40;16.20;;;;;;;8.15;66.19;98766.21;107537;1263;60994;-66
2024/01/25 05:14:10;;;;;;;27.40;15.10;;;;;;;8.21;66.21;98763.06;107525;1260;59596;-67
2024/01/25 05:16:37;;;;;;;24.20;14.70;;;;;;;8.41;65.40;98758.61;107563;1261;73010;-65
2024/01/25 05:19:05;;;;;;;24.00;15.30;;;;;;;8.43;65.46;98755.73;107471;1260;70005;-67
2024/01/25 05:21:33;;;;;;;29.10;15.20;;;;;;;8.48;65.29;98754.27;107484;1260;71367;-66
2024/01/25 05:24:00;;;;;;;27.00;14.90;;;;;;;8.48;65.11;98756.88;107541;1266;60107;-66
2024/01/25 05:26:28;;;;;;;28.90;16.00;;;;;;;8.43;65.30;98758.17;107522;1260;60058;-65
2024/01/25 05:28:55;;;;;;;31.00;17.30;;;;;;;8.36;65.61;98759.73;107479;1266;72738;-66
2024/01/25 05:31:23;;;;;;;36.70;18.10;;;;;;;8.34;65.58;98761.23;107505;1261;70379;-66
2024/01/25 05:33:50;;;;;;;30.80;17.10;;;;;;;8.37;65.54;98758.81;107551;1263;71057;-66
2024/01/25 05:36:19;;;;;;;34.60;19.40;;;;;;;8.29;65.66;98758.87;107460;1263;59997;-67
2024/01/25 05:38:47;;;;;;;34.50;19.20;;;;;;;8.38;65.47;98763.15;107410;1264;59476;-67
2024/01/25 05:41:15;;;;;;;31.90;17.20;;;;;;;8.46;65.07;98763.09;107460;1264;73159;-66
2024/01/25 05:43:42;;;;;;;32.00;18.60;;;;;;;8.46;64.99;98769.59;107438;1268;69943;-67
2024/01/25 05:46:10;;;;;;;30.10;18.00;;;;;;;8.41;65.17;98767.35;107487;1264;72917;-66
2024/01/25 05:48:37;;;;;;;33.80;19.80;;;;;;;8.32;65.48;98764.13;107454;1262;60803;-66
2024/01/25 05:51:05;;;;;;;33.20;19.10;;;;;;;8.41;65.24;98763.52;107415;1264;59100;-66
2024/01/25 05:53:32;;;;;;;31.40;17.90;;;;;;;8.48;65.15;98763.03;107438;1263;72650;-66
2024/01/25 05:56:00;;;;;;;38.30;20.50;;;;;;;8.54;64.78;98760.77;107463;1266;69042;-67
2024/01/25 05:58:27;;;;;;;29.70;18.50;;;;;;;8.56;64.65;98761.89;107461;1266;71747;-67
2024/01/25 06:00:55;;;;;;;33.80;18.60;;;;;;;8.55;65.00;98759.52;107658;1261;59673;-66
2024/01/25 06:03:22;;;;;;;30.40;18.40;;;;;;;8.59;64.77;98762.11;107658;1261;59512;-66
2024/01/25 06:05:50;;;;;;;29.80;17.90;;;;;;;8.54;65.11;98760.06;107762;1263;71121;-68
2024/01/25 06:08:18;;;;;;;28.10;17.00;;;;;;;8.65;64.84;98760.94;107679;1265;69469;-67
2024/01/25 06:10:45;;;;;;;29.20;16.20;;;;;;;8.57;65.17;98761.16;107762;1260;72834;-66
2024/01/25 06:13:13;;;;;;;31.00;17.50;;;;;;;8.42;65.58;98758.07;107647;1260;59467;-66
2024/01/25 06:15:41;;;;;;;32.80;18.50;;;;;;;8.55;65.33;98758.98;107619;1258;59503;-67
2024/01/25 06:18:08;;;;;;;33.80;18.80;;;;;;;8.64;65.00;98754.85;107612;1262;73011;-67
2024/01/25 06:20:36;;;;;;;31.00;17.20;;;;;;;8.65;65.04;98752.20;107743;1260;69232;-67
2024/01/25 06:23:03;;;;;;;32.50;18.30;;;;;;;8.69;65.01;98754.42;107639;1259;71113;-67
2024/01/25 06:25:31;;;;;;;32.10;17.20;;;;;;;8.67;65.14;98754.02;107788;1257;59807;-67
2024/01/25 06:28:00;;;;;;;36.80;18.70;;;;;;;8.74;65.03;98753.16;107855;1257;59247;-66
2024/01/25 06:30:28;;;;;;;31.80;17.70;;;;;;;8.74;64.94;98751.36;107803;1262;71746;-66
2024/01/25 06:32:55;;;;;;;28.80;15.70;;;;;;;8.76;65.06;98753.70;107688;1257;70514;-66
2024/01/25 06:35:23;;;;;;;37.60;20.10;;;;;;;8.88;64.94;98752.05;107758;1262;72740;-65
2024/01/25 06:37:51;;;;;;;31.40;16.40;;;;;;;8.85;64.94;98749.08;107736;1260;59593;-65
2024/01/25 06:40:18;;;;;;;35.50;20.00;;;;;;;8.80;65.11;98749.15;107737;1262;59535;-67
2024/01/25 06:42:46;;;;;;;33.20;18.80;;;;;;;8.80;65.20;98749.65;107703;1257;73018;-65
2024/01/25 06:45:13;;;;;;;37.60;19.20;;;;;;;8.80;65.26;98747.20;107718;1257;68703;-66
2024/01/25 06:47:41;;;;;;;35.60;19.20;;;;;;;8.80;65.10;98741.42;107704;1260;71794;-67
2024/01/25 06:50:09;;;;;;;30.10;18.20;;;;;;;8.89;64.94;98740.77;107730;1260;60791;-66
2024/01/25 06:52:37;;;;;;;36.50;17.80;;;;;;;8.88;64.95;98742.25;107836;1256;60113;-67
2024/01/25 06:55:04;;;;;;;37.90;19.50;;;;;;;8.93;64.90;98736.05;107783;1257;71554;-66
2024/01/25 06:57:32;;;;;;;36.60;18.60;;;;;;;8.89;65.21;98740.26;107737;1257;69962;-66
2024/01/25 07:00:00;;;;;;;31.00;18.40;;;;;;;8.88;65.11;98738.37;107667;1263;72320;-67
2024/01/25 07:02:28;;;;;;;40.40;19.30;;;;;;;8.94;65.09;98738.08;107765;1261;59633;-67
2024/01/25 07:04:56;;;;;;;34.70;19.20;;;;;;;8.84;65.35;98741.38;107790;1256;59434;-67
2024/01/25 07:07:24;;;;;;;33.80;20.10;;;;;;;8.92;65.02;98742.39;107910;1257;72305;-67
2024/01/25 07:09:52;;;;;;;32.40;17.20;;;;;;;9.08;64.71;98742.79;107927;1260;70328;-67
2024/01/25 07:12:20;;;;;;;33.20;17.60;;;;;;;9.16;64.33;98741.64;107877;1256;71478;-67
2024/01/25 07:14:47;;;;;;;35.10;18.80;;;;;;;9.27;64.05;98739.84;107864;1257;60833;-67
2024/01/25 07:17:15;;;;;;;34.20;18.20;;;;;;;9.12;64.50;98742.08;107778;1261;59509;-68
2024/01/25 07:19:42;;;;;;;37.50;19.30;;;;;;;9.17;64.45;98743.36;107812;1258;71763;-67
2024/01/25 07:22:11;;;;;;;31.60;17.50;;;;;;;9.33;64.00;98740.89;107878;1257;69438;-69
2024/01/25 07:24:39;;;;;;;32.90;17.10;;;;;;;9.21;64.33;98741.93;107998;1258;74846;-67
2024/01/25 07:27:06;;;;;;;35.10;18.50;;;;;;;9.16;64.57;98743.58;108047;1259;63460;-68
2024/01/25 07:29:34;;;;;;;33.50;17.10;;;;;;;9.22;64.46;98741.83;108109;1254;59487;-68
2024/01/25 07:32:02;;;;;;;35.40;18.30;;;;;;;9.42;63.89;98738.15;108170;1254;71797;-66
2024/01/25 07:34:30;;;;;;;29.60;17.10;;;;;;;9.46;63.73;98734.44;108018;1254;70466;-68
2024/01/25 07:36:58;;;;;;;29.80;15.20;;;;;;;9.41;63.87;98728.57;108206;1253;72904;-68
2024/01/25 07:39:26;;;;;;;31.90;18.00;;;;;;;9.38;63.86;98731.33;108127;1257;59983;-67
2024/01/25 07:41:53;;;;;;;27.50;16.00;;;;;;;9.42;63.81;98728.51;108101;1255;59534;-68
2024/01/25 07:44:21;;;;;;;32.30;17.00;;;;;;;9.25;64.26;98728.05;108025;1259;74119;-67
2024/01/25 07:46:48;;;;;;;37.10;17.10;;;;;;;9.34;63.90;98730.33;108060;1254;70814;-67
2024/01/25 07:49:16;;;;;;;31.40;15.80;;;;;;;9.34;63.91;98731.04;108123;1254;71394;-67
2024/01/25 07:51:44;;;;;;;35.30;16.70;;;;;;;9.44;63.60;98733.63;108104;1254;59690;-67
2024/01/25 07:54:12;;;;;;;36.00;17.50;;;;;;;9.52;63.43;98734.80;108068;1257;60276;-67
2024/01/25 07:56:40;;;;;;;38.60;17.40;;;;;;;9.41;63.64;98732.27;108071;1254;73014;-66
2024/01/25 07:59:07;;;;;;;32.50;16.50;;;;;;;9.46;63.60;98730.08;108134;1257;70416;-68
2024/01/25 08:01:35;;;;;;;31.40;15.30;;;;;;;9.43;63.75;98731.09;108174;1259;72812;-68
2024/01/25 08:04:03;;;;;;;33.40;18.00;;;;;;;9.34;63.97;98729.83;108120;1254;60930;-67
2024/01/25 08:06:31;;;;;;;32.70;16.80;;;;;;;9.53;63.34;98728.99;108103;1254;59477;-67
2024/01/25 08:08:59;;;;;;;29.20;15.30;;;;;;;9.37;63.79;98730.03;108085;1254;73024;-68
2024/01/25 08:11:26;;;;;;;34.30;18.00;;;;;;;9.48;63.45;98731.37;108119;1257;68866;-67
2024/01/25 08:13:54;;;;;;;35.00;16.00;;;;;;;9.58;63.21;98732.73;108033;1254;72441;-67
2024/01/25 08:16:21;;;;;;;32.10;16.50;;;;;;;9.68;62.83;98734.08;108095;1255;61117;-67
2024/01/25 08:18:49;;;;;;;29.10;16.00;;;;;;;9.67;63.04;98730.84;108096;1254;60318;-67
2024/01/25 08:21:17;;;;;;;29.80;16.50;;;;;;;9.63;63.21;98738.04;108150;1257;73835;-67
2024/01/25 08:23:45;;;;;;;35.30;17.80;;;;;;;9.71;62.99;98738.14;108120;1254;69007;-67
2024/01/25 08:26:12;;;;;;;34.80;17.50;;;;;;;9.84;62.77;98736.00;108140;1257;72870;-67
2024/01/25 08:28:40;;;;;;;30.50;15.80;;;;;;;9.87;62.64;98737.03;108073;1254;60748;-67
2024/01/25 08:31:08;;;;;;;33.70;18.40;;;;;;;9.82;62.77;98735.91;108081;1254;60590;-67
2024/01/25 08:33:35;;;;;;;32.50;16.50;;;;;;;9.83;63.04;98736.04;108046;1253;74160;-67
2024/01/25 08:36:04;;;;;;;33.40;18.60;;;;;;;9.93;62.81;98730.09;108107;1254;70473;-66
2024/01/25 08:38:31;;;;;;;36.00;18.80;;;;;;;9.96;62.78;98731.33;108056;1254;74934;-68
2024/01/25 08:40:59;;;;;;;33.30;18.40;;;;;;;10.06;62.68;98728.96;108246;1254;60348;-68
2024/01/25 08:43:27;;;;;;;35.80;18.50;;;;;;;10.07;62.53;98728.40;108129;1254;60446;-67
2024/01/25 08:45:55;;;;;;;28.00;15.70;;;;;;;10.04;62.61;98729.43;108060;1257;73017;-67
2024/01/25 08:48:22;;;;;;;36.30;18.10;;;;;;;10.00;62.57;98727.91;108096;1254;69199;-67
2024/01/25 08:50:53;;;;;;;33.80;17.40;;;;;;;10.01;62.51;98725.59;108062;1254;74893;-67
2024/01/25 08:53:22;;;;;;;34.40;17.40;;;;;;;9.81;63.12;98728.27;108119;1254;60345;-67
2024/01/25 08:55:50;;;;;;;34.60;17.50;;;;;;;9.96;62.74;98724.84;108135;1253;60651;-67
2024/01/25 08:58:17;;;;;;;39.60;17.10;;;;;;;10.10;62.30;98725.06;108152;1253;75998;-67
2024/01/25 09:00:45;;;;;;;31.30;16.50;;;;;;;10.04;62.61;98724.02;108102;1254;70983;-66
2024/01/25 09:03:14;;;;;;;35.60;16.10;;;;;;;10.10;62.46;98730.48;108069;1254;71698;-67
2024/01/25 09:05:44;;;;;;;31.70;16.20;;;;;;;10.02;62.63;98727.27;108172;1254;62916;-67
2024/01/25 09:08:13;;;;;;;36.50;17.80;;;;;;;10.13;62.23;98724.33;108142;1255;60560;-68
2024/01/25 09:10:41;;;;;;;34.80;16.30;;;;;;;10.26;61.87;98724.48;108165;1257;73990;-67
2024/01/25 09:13:08;;;;;;;36.50;16.80;;;;;;;10.28;62.08;98723.14;108121;1253;70329;-67
2024/01/25 09:15:36;;;;;;;33.80;18.60;;;;;;;10.42;61.62;98723.58;108059;1254;75123;-67
2024/01/25 09:18:04;;;;;;;32.50;15.20;;;;;;;10.57;61.22;98721.16;108110;1254;60433;-68
2024/01/25 09:20:32;;;;;;;29.60;15.70;;;;;;;10.66;60.99;98718.13;107983;1252;62191;-67
2024/01/25 09:23:00;;;;;;;37.00;18.70;;;;;;;10.70;61.08;98715.26;108041;1254;74081;-67
2024/01/25 09:25:28;;;;;;;27.60;15.40;;;;;;;10.83;60.66;98716.41;108098;1253;72364;-66
2024/01/25 09:27:57;;;;;;;39.00;17.00;;;;;;;10.71;60.62;98714.34;108071;1254;74075;-68
2024/01/25 09:30:26;;;;;;;34.60;16.30;;;;;;;10.81;60.42;98714.27;108014;1253;60328;-67
2024/01/25 09:32:54;;;;;;;30.00;15.80;;;;;;;10.87;60.33;98713.36;108050;1254;60296;-67
2024/01/25 09:35:22;;;;;;;33.50;15.70;;;;;;;10.89;60.15;98710.08;108066;1254;73713;-66
2024/01/25 09:37:52;;;;;;;30.40;14.20;;;;;;;10.91;60.08;98705.73;108149;1257;69412;-66
2024/01/25 09:40:20;;;;;;;30.50;16.30;;;;;;;10.83;60.31;98707.45;108186;1254;74593;-66
2024/01/25 09:42:48;;;;;;;30.90;16.10;;;;;;;10.99;59.93;98706.97;108144;1254;63221;-68
2024/01/25 09:45:17;;;;;;;30.00;14.30;;;;;;;11.03;59.75;98706.03;108071;1254;60051;-67
2024/01/25 09:47:45;;;;;;;35.80;16.80;;;;;;;10.85;59.99;98707.36;108008;1254;73916;-67
2024/01/25 09:50:13;;;;;;;25.10;12.90;;;;;;;10.97;59.77;98703.11;108087;1254;68671;-67
2024/01/25 09:52:47;;;;;;;33.00;13.90;;;;;;;10.79;60.31;98704.20;108139;1254;75026;-68
2024/01/25 09:55:17;;;;;;;29.60;14.40;;;;;;;10.95;59.84;98702.33;108071;1253;63024;-68
2024/01/25 09:57:46;;;;;;;31.90;15.30;;;;;;;10.89;59.91;98699.21;108047;1254;60501;-67
2024/01/25 10:00:15;;;;;;;34.10;16.00;;;;;;;10.98;59.61;98696.85;108056;1253;73692;-68
2024/01/25 10:02:43;;;;;;;35.00;17.20;;;;;;;11.13;59.02;98699.80;108038;1254;71157;-67
2024/01/25 10:05:10;;;;;;;35.00;15.40;;;;;;;11.07;59.25;98697.71;107983;1253;75058;-67
2024/01/25 10:07:42;;;;;;;27.50;13.50;;;;;;;11.11;59.27;98699.22;108113;1254;60329;-67
2024/01/25 10:10:11;;;;;;;26.10;13.90;;;;;;;11.02;59.49;98698.05;108171;1252;60187;-67
2024/01/25 10:12:40;;;;;;;28.50;13.20;;;;;;;11.14;59.29;98694.86;108196;1254;74775;-66
2024/01/25 10:15:09;;;;;;;28.60;13.80;;;;;;;11.10;59.18;98693.66;108212;1254;70924;-67
2024/01/25 10:17:36;;;;;;;24.50;12.60;;;;;;;11.02;59.46;98690.86;108071;1257;71746;-67
2024/01/25 10:20:25;;;;;;;30.30;13.30;;;;;;;11.05;59.41;98690.61;108116;1254;60233;-67
2024/01/25 10:22:58;;;;;;;31.50;14.20;;;;;;;11.19;59.09;98685.79;107884;1260;60318;-66
2024/01/25 10:25:27;;;;;;;26.20;13.70;;;;;;;11.28;59.06;98687.64;108191;1254;73484;-67
2024/01/25 10:27:57;;;;;;;28.10;14.90;;;;;;;11.34;59.10;98687.26;108247;1254;72471;-67
2024/01/25 10:30:24;;;;;;;32.00;13.80;;;;;;;11.44;58.83;98688.08;108064;1254;71852;-66
2024/01/25 10:32:52;;;;;;;36.30;14.70;;;;;;;11.50;58.72;98686.92;107932;1255;60331;-66
2024/01/25 10:35:20;;;;;;;39.00;16.40;;;;;;;11.62;58.61;98689.38;107966;1253;60181;-66
2024/01/25 10:37:52;;;;;;;24.70;13.30;;;;;;;11.67;58.48;98687.31;107887;1254;72703;-67
2024/01/25 10:40:20;;;;;;;25.10;13.10;;;;;;;11.57;58.33;98687.03;108010;1254;69235;-67
2024/01/25 10:42:48;;;;;;;32.20;14.00;;;;;;;11.70;58.10;98684.27;108001;1254;74902;-67
2024/01/25 10:45:16;;;;;;;24.00;11.80;;;;;;;11.66;58.17;98680.48;107998;1254;60213;-67
2024/01/25 10:47:44;;;;;;;27.90;12.90;;;;;;;11.74;58.12;98679.43;108040;1254;59705;-66
2024/01/25 10:50:13;;;;;;;20.50;11.00;;;;;;;11.64;58.25;98679.24;107991;1254;73931;-67
2024/01/25 10:52:41;;;;;;;21.50;11.00;;;;;;;11.60;58.33;98675.45;108016;1254;72313;-67
2024/01/25 10:55:09;;;;;;;20.00;11.50;;;;;;;11.77;57.69;98678.92;107897;1254;71484;-67
2024/01/25 10:57:37;;;;;;;21.00;11.40;;;;;;;11.74;57.55;98678.02;108095;1253;60459;-66
2024/01/25 11:00:09;;;;;;;24.40;12.20;;;;;;;11.71;57.42;98679.49;108034;1254;60973;-67
2024/01/25 11:02:39;;;;;;;24.00;11.50;;;;;;;11.72;57.21;98676.77;108040;1253;74150;-67
2024/01/25 11:05:09;;;;;;;22.90;11.00;;;;;;;11.75;57.19;98677.46;107917;1254;70341;-66
2024/01/25 11:07:56;;;;;;;30.30;12.60;;;;;;;11.87;57.13;98678.98;107874;1254;72867;-67
2024/01/25 11:10:27;;;;;;;24.60;10.90;;;;;;;11.87;57.01;98675.97;107859;1259;61476;-67
2024/01/25 11:12:59;;;;;;;24.20;9.50;;;;;;;11.71;57.49;98676.29;107906;1254;60948;-67
2024/01/25 11:15:35;;;;;;;19.50;9.60;;;;;;;11.87;56.89;98671.71;108037;1254;76120;-66
2024/01/25 11:18:07;;;;;;;32.40;8.20;;;;;;;11.93;56.15;98672.55;107958;1254;70328;-66
2024/01/25 11:20:36;;;;;;;17.10;7.60;;;;;;;11.80;56.32;98672.90;107998;1254;72981;-66
2024/01/25 11:23:05;;;;;;;22.50;10.10;;;;;;;11.73;56.57;98669.13;107987;1254;61961;-66
2024/01/25 11:25:37;;;;;;;22.60;9.10;;;;;;;11.70;56.65;98670.71;108124;1259;60338;-66